Time;durP1;ratioP1;P1;durP2;ratioP2;P2;SDS_P1;SDS_P2;PMS_P1;PMS_P2;Temp;Humidity;BMP_temperature;BMP_pressure;BME280_temperature;BME280_humidity;BME280_pressure;Samples;Min_cycle;Max_cycle;Signal;HPM_P1;HPM_P2
2022/09/08 00:00:46;;;;;;;;;;;15.90;99.90;;;;;;5048459;28;20036;-54
2022/09/08 00:03:14;;;;;;;14.88;8.45;;;15.80;99.90;;;;;;5047779;28;19918;-54
2022/09/08 00:05:55;;;;;;;19.05;8.48;;;15.90;99.90;;;;;;5048057;28;20380;-54
2022/09/08 00:08:22;;;;;;;18.20;9.40;;;15.70;99.90;;;;;;5046640;28;20039;-54
2022/09/08 00:10:50;;;;;;;17.75;8.60;;;15.80;99.90;;;;;;5047787;28;20543;-54
2022/09/08 00:13:17;;;;;;;19.17;8.80;;;15.80;99.90;;;;;;5046419;28;20082;-54
2022/09/08 00:15:43;;;;;;;16.33;9.07;;;15.80;99.90;;;;;;5047651;28;20429;-54
2022/09/08 00:18:08;;;;;;;16.40;8.80;;;15.70;99.90;;;;;;5047962;28;20104;-54
2022/09/08 00:20:34;;;;;;;18.45;9.30;;;15.70;99.90;;;;;;5047595;28;20029;-54
2022/09/08 00:23:00;;;;;;;23.13;10.73;;;15.70;99.90;;;;;;5047716;28;20021;-53
2022/09/08 00:25:26;;;;;;;20.17;9.15;;;15.70;99.90;;;;;;5047451;28;20028;-54
2022/09/08 00:27:52;;;;;;;16.55;8.52;;;15.70;99.90;;;;;;5046502;28;20029;-54
2022/09/08 00:30:18;;;;;;;18.23;9.73;;;15.70;99.90;;;;;;5047505;28;20086;-54
2022/09/08 00:32:44;;;;;;;15.88;9.05;;;15.70;99.90;;;;;;5047572;28;20124;-54
2022/09/08 00:35:14;;;;;;;22.88;9.88;;;15.70;99.90;;;;;;5047757;28;20483;-54
2022/09/08 00:37:40;;;;;;;19.85;9.13;;;15.70;99.90;;;;;;5047431;28;20448;-54
2022/09/08 00:40:07;;;;;;;17.90;9.87;;;15.70;99.90;;;;;;5047270;28;20029;-55
2022/09/08 00:42:33;;;;;;;20.63;10.43;;;15.70;99.90;;;;;;5047813;28;20033;-57
2022/09/08 00:44:59;;;;;;;17.02;8.95;;;15.70;99.90;;;;;;5047755;28;20025;-54
2022/09/08 00:47:30;;;;;;;15.88;8.50;;;15.70;99.90;;;;;;5047298;28;21384;-54
2022/09/08 00:49:59;;;;;;;16.67;9.70;;;15.70;99.90;;;;;;5047211;28;20025;-54
2022/09/08 00:52:28;;;;;;;17.45;8.60;;;15.60;99.90;;;;;;5047457;28;20029;-54
2022/09/08 00:54:54;;;;;;;22.27;10.32;;;15.60;99.90;;;;;;5044849;28;20157;-54
2022/09/08 00:57:20;;;;;;;14.98;8.80;;;15.60;99.90;;;;;;5047457;28;20124;-54
2022/09/08 00:59:48;;;;;;;25.52;8.73;;;15.60;99.90;;;;;;5046067;28;20104;-54
2022/09/08 01:02:25;;;;;;;20.33;9.40;;;15.50;99.90;;;;;;5047495;28;20365;-54
2022/09/08 01:05:03;;;;;;;19.85;9.10;;;15.50;99.90;;;;;;5044836;28;20118;-54
2022/09/08 01:13:32;;;;;;;20.55;9.00;;;15.40;99.90;;;;;;5047246;28;20109;-54
2022/09/08 01:15:59;;;;;;;24.55;9.77;;;15.40;99.90;;;;;;5050494;28;20036;-54
2022/09/08 01:18:25;;;;;;;17.27;7.78;;;15.40;99.90;;;;;;5049594;28;20021;-54
2022/09/08 01:21:01;;;;;;;18.23;9.38;;;15.40;99.90;;;;;;5051161;28;20104;-55
2022/09/08 01:24:02;;;;;;;22.67;10.07;;;15.30;99.90;;;;;;5051065;28;20065;-55
2022/09/08 01:26:37;;;;;;;21.63;9.40;;;15.30;99.90;;;;;;5044036;28;20107;-55
2022/09/08 01:29:08;;;;;;;16.63;8.50;;;15.40;99.90;;;;;;5051060;28;20051;-54
2022/09/08 01:31:39;;;;;;;20.65;9.07;;;15.30;99.90;;;;;;5048399;28;20027;-54
2022/09/08 01:34:05;;;;;;;15.77;8.25;;;15.30;99.90;;;;;;5050786;28;20915;-55
2022/09/08 01:36:31;;;;;;;19.38;9.95;;;15.20;99.90;;;;;;5047730;28;20071;-54
2022/09/08 01:38:56;;;;;;;17.30;8.68;;;15.20;99.90;;;;;;5050894;28;20027;-54
2022/09/08 01:41:22;;;;;;;19.85;9.60;;;15.20;99.90;;;;;;5050610;28;20060;-54
2022/09/08 01:43:48;;;;;;;16.27;9.18;;;15.20;99.90;;;;;;5050607;28;20025;-54
2022/09/08 01:46:13;;;;;;;18.45;8.40;;;15.20;99.90;;;;;;5050579;28;20039;-54
2022/09/08 01:48:39;;;;;;;22.67;9.25;;;15.20;99.90;;;;;;5050436;28;20017;-54
2022/09/08 01:51:07;;;;;;;18.95;9.43;;;15.10;99.90;;;;;;5048925;28;20562;-54
2022/09/08 01:53:33;;;;;;;26.30;10.27;;;15.10;99.90;;;;;;5047873;28;20052;-54
2022/09/08 01:55:59;;;;;;;18.70;9.80;;;15.00;99.90;;;;;;5050418;28;20037;-54
2022/09/08 01:58:25;;;;;;;16.95;9.45;;;15.10;99.90;;;;;;5050243;28;20029;-54
2022/09/08 02:00:51;;;;;;;16.35;8.60;;;15.00;99.90;;;;;;5050246;28;20112;-54
2022/09/08 02:03:17;;;;;;;18.98;9.38;;;15.00;99.90;;;;;;5050220;28;20128;-54
2022/09/08 02:05:43;;;;;;;18.73;9.43;;;15.10;99.90;;;;;;5050361;28;20029;-54
2022/09/08 02:08:10;;;;;;;21.92;9.20;;;15.00;99.90;;;;;;5048189;28;20476;-54
2022/09/08 02:10:37;;;;;;;21.30;9.60;;;14.90;99.90;;;;;;5049009;28;20484;-53
2022/09/08 02:13:04;;;;;;;22.13;9.63;;;14.80;99.90;;;;;;5050069;28;20025;-54
2022/09/08 02:15:30;;;;;;;27.75;9.13;;;14.80;99.90;;;;;;5049765;28;20060;-54
2022/09/08 02:17:59;;;;;;;18.25;9.55;;;14.90;99.90;;;;;;5049632;28;20032;-54
2022/09/08 02:20:25;;;;;;;16.58;10.20;;;14.80;99.90;;;;;;5049790;28;20032;-54
2022/09/08 02:22:53;;;;;;;26.70;9.90;;;14.90;99.90;;;;;;5047174;28;20103;-54
2022/09/08 02:25:20;;;;;;;24.00;9.50;;;14.90;99.90;;;;;;5049201;28;20048;-54
2022/09/08 02:27:46;;;;;;;17.52;10.70;;;14.90;99.90;;;;;;5050393;28;20508;-54
2022/09/08 02:30:12;;;;;;;19.40;9.75;;;14.80;99.90;;;;;;5050622;28;20029;-54
2022/09/08 02:32:39;;;;;;;19.88;9.77;;;14.90;99.90;;;;;;5051252;28;20033;-54
2022/09/08 02:35:06;;;;;;;21.63;10.45;;;14.90;99.90;;;;;;5051325;28;20052;-54
2022/09/08 02:37:31;;;;;;;17.65;9.65;;;15.00;99.90;;;;;;5050658;28;20055;-59
2022/09/08 02:39:57;;;;;;;19.73;9.10;;;14.90;99.90;;;;;;5050453;28;20095;-54
2022/09/08 02:42:23;;;;;;;18.08;9.13;;;14.90;99.90;;;;;;5050851;28;20072;-54
2022/09/08 02:44:48;;;;;;;17.98;9.95;;;15.00;99.90;;;;;;5050550;28;20024;-54
2022/09/08 02:47:14;;;;;;;15.20;9.23;;;15.00;99.90;;;;;;5050600;28;20061;-54
2022/09/08 02:49:40;;;;;;;21.80;9.18;;;15.00;99.90;;;;;;5050586;28;20487;-54
2022/09/08 02:52:06;;;;;;;22.75;9.80;;;15.00;99.90;;;;;;5050190;28;20025;-54
2022/09/08 02:54:31;;;;;;;15.95;9.82;;;14.90;99.90;;;;;;5050229;28;20073;-54
2022/09/08 02:56:57;;;;;;;17.83;9.88;;;14.90;99.90;;;;;;5050446;28;20032;-54
2022/09/08 02:59:22;;;;;;;18.13;9.52;;;14.90;99.90;;;;;;5050205;28;20029;-54
2022/09/08 03:01:48;;;;;;;21.45;10.25;;;14.90;99.90;;;;;;5050855;28;20021;-54
2022/09/08 03:04:14;;;;;;;15.55;9.30;;;14.80;99.90;;;;;;5049014;28;20040;-54
2022/09/08 03:06:40;;;;;;;20.27;9.68;;;14.70;99.90;;;;;;5050555;28;20025;-54
2022/09/08 03:09:06;;;;;;;19.77;10.23;;;14.70;99.90;;;;;;5050107;28;20029;-54
2022/09/08 03:11:33;;;;;;;19.23;10.45;;;14.60;99.90;;;;;;5049975;28;20476;-54
2022/09/08 03:13:59;;;;;;;17.48;10.15;;;14.70;99.90;;;;;;5049984;28;20650;-53
2022/09/08 03:16:26;;;;;;;19.97;10.50;;;14.60;99.90;;;;;;5050394;28;20028;-53
2022/09/08 03:18:53;;;;;;;19.98;9.20;;;14.60;99.90;;;;;;5049696;28;20021;-54
2022/09/08 03:21:19;;;;;;;16.70;9.73;;;14.60;99.90;;;;;;5049646;28;20120;-53
2022/09/08 03:23:44;;;;;;;18.58;9.48;;;14.50;99.90;;;;;;5049840;28;20107;-53
2022/09/08 03:26:13;;;;;;;20.48;10.60;;;14.60;99.90;;;;;;5049589;28;20060;-54
2022/09/08 03:28:40;;;;;;;20.85;10.15;;;14.60;99.90;;;;;;5049428;28;20033;-54
2022/09/08 03:31:08;;;;;;;23.65;10.77;;;14.60;99.90;;;;;;5048140;28;20043;-54
2022/09/08 03:33:34;;;;;;;18.95;10.02;;;14.50;99.90;;;;;;5048415;28;20063;-54
2022/09/08 03:36:05;;;;;;;21.77;10.90;;;14.50;99.90;;;;;;5049647;28;20033;-54
2022/09/08 03:38:32;;;;;;;19.55;10.13;;;14.40;99.90;;;;;;5048919;28;20033;-54
2022/09/08 03:40:58;;;;;;;18.88;9.73;;;14.50;99.90;;;;;;5049276;28;20058;-54
2022/09/08 03:43:24;;;;;;;21.58;10.52;;;14.40;99.90;;;;;;5049444;28;20033;-54
2022/09/08 03:45:50;;;;;;;17.80;10.07;;;14.40;99.90;;;;;;5049800;28;20037;-53
2022/09/08 03:48:16;;;;;;;19.48;11.00;;;14.30;99.90;;;;;;5049666;28;20464;-54
2022/09/08 03:50:42;;;;;;;25.08;10.35;;;14.30;99.90;;;;;;5049058;28;20024;-54
2022/09/08 03:53:08;;;;;;;19.92;10.80;;;14.30;99.90;;;;;;5049374;28;20392;-54
2022/09/08 03:55:34;;;;;;;19.15;10.27;;;14.30;99.90;;;;;;5048923;28;20053;-54
2022/09/08 03:58:00;;;;;;;20.10;10.35;;;14.30;99.90;;;;;;5049348;28;20059;-54
2022/09/08 04:00:27;;;;;;;22.43;10.83;;;14.30;99.90;;;;;;5049024;28;20056;-54
2022/09/08 04:02:53;;;;;;;18.67;10.27;;;14.30;99.90;;;;;;5049561;28;20033;-54
2022/09/08 04:05:19;;;;;;;21.17;11.35;;;14.30;99.90;;;;;;5049515;28;20486;-54
2022/09/08 04:07:45;;;;;;;20.08;10.30;;;14.20;99.90;;;;;;5049176;28;20058;-54
2022/09/08 04:10:12;;;;;;;19.27;10.82;;;14.20;99.90;;;;;;5048764;28;20036;-54
2022/09/08 04:12:39;;;;;;;19.48;10.70;;;14.20;99.90;;;;;;5048962;28;20074;-54
2022/09/08 04:15:06;;;;;;;23.63;11.52;;;14.20;99.90;;;;;;5049019;28;20578;-54
2022/09/08 04:17:32;;;;;;;21.13;11.25;;;14.20;99.90;;;;;;5049188;28;20395;-54
2022/09/08 04:19:58;;;;;;;23.50;11.52;;;14.10;99.90;;;;;;5048595;28;20036;-54
2022/09/08 04:22:24;;;;;;;19.13;10.55;;;14.20;99.90;;;;;;5048925;28;20025;-54
2022/09/08 04:24:50;;;;;;;23.57;11.10;;;14.10;99.90;;;;;;5049048;28;20029;-53
2022/09/08 04:27:17;;;;;;;18.92;9.57;;;14.20;99.90;;;;;;5048798;28;20040;-53
2022/09/08 04:29:43;;;;;;;21.55;10.77;;;14.20;99.90;;;;;;5048806;28;20059;-54
2022/09/08 04:32:09;;;;;;;19.17;10.10;;;14.20;99.90;;;;;;5049024;28;20033;-54
2022/09/08 04:34:35;;;;;;;22.45;12.13;;;14.20;99.90;;;;;;5048719;28;20087;-54
2022/09/08 04:37:02;;;;;;;22.40;11.15;;;14.20;99.90;;;;;;5048827;28;20400;-54
2022/09/08 04:39:28;;;;;;;17.85;10.48;;;14.20;99.90;;;;;;5049002;28;20118;-54
2022/09/08 04:41:54;;;;;;;21.15;11.40;;;14.20;99.90;;;;;;5048706;28;20080;-54
2022/09/08 04:44:20;;;;;;;20.65;11.18;;;14.20;99.90;;;;;;5049270;28;20090;-54
2022/09/08 04:46:45;;;;;;;21.40;10.98;;;14.20;99.90;;;;;;5048870;28;20479;-54
2022/09/08 04:49:11;;;;;;;19.25;10.57;;;14.20;99.90;;;;;;5051619;28;20025;-54
2022/09/08 04:51:37;;;;;;;20.60;11.38;;;14.20;99.90;;;;;;5052747;28;20108;-54
2022/09/08 04:54:03;;;;;;;20.88;11.45;;;14.20;99.90;;;;;;5052434;28;20098;-54
2022/09/08 04:56:30;;;;;;;24.90;11.18;;;14.30;99.90;;;;;;5052903;28;20114;-54
2022/09/08 04:58:57;;;;;;;20.13;10.95;;;14.30;99.90;;;;;;5052665;28;20029;-53
2022/09/08 05:01:24;;;;;;;;;;;14.40;99.90;;;;;;5052844;28;20098;-54
2022/09/08 05:03:51;;;;;;;20.73;11.23;;;14.40;99.90;;;;;;5052726;28;19908;-54
2022/09/08 05:06:17;;;;;;;;;;;14.50;99.90;;;;;;5052816;28;20036;-54
2022/09/08 05:08:48;;;;;;;21.88;11.27;;;14.50;99.90;;;;;;5052352;28;19908;-54
2022/09/08 05:11:14;;;;;;;20.30;11.10;;;14.50;99.90;;;;;;5052155;28;20440;-54
2022/09/08 05:13:40;;;;;;;23.17;11.95;;;14.60;99.90;;;;;;5052411;28;20500;-54
2022/09/08 05:16:09;;;;;;;20.48;10.10;;;14.60;99.90;;;;;;5052111;28;20036;-54
2022/09/08 05:18:35;;;;;;;18.83;10.88;;;14.70;99.90;;;;;;5052308;28;20025;-54
2022/09/08 05:21:02;;;;;;;26.25;12.00;;;14.70;99.90;;;;;;5052011;28;20108;-54
2022/09/08 05:23:37;;;;;;;18.88;10.85;;;14.80;99.90;;;;;;5052462;28;20110;-54
2022/09/08 05:26:07;;;;;;;19.73;10.73;;;14.90;99.90;;;;;;5051990;28;20492;-55
2022/09/08 05:28:38;;;;;;;21.10;11.32;;;14.90;99.90;;;;;;5052149;28;20044;-58
2022/09/08 05:31:06;;;;;;;19.20;10.60;;;14.90;99.90;;;;;;5050266;28;20162;-54
2022/09/08 05:33:32;;;;;;;20.38;10.50;;;15.00;99.90;;;;;;5052271;28;20112;-54
2022/09/08 05:35:59;;;;;;;25.95;11.23;;;15.00;99.90;;;;;;5052141;28;20113;-54
2022/09/08 05:38:24;;;;;;;24.17;11.60;;;15.10;99.90;;;;;;5052158;28;20108;-54
2022/09/08 05:40:50;;;;;;;27.60;11.48;;;15.20;99.90;;;;;;5051381;28;20108;-54
2022/09/08 05:43:17;;;;;;;18.95;11.30;;;15.20;99.90;;;;;;5051700;28;20060;-54
2022/09/08 05:45:47;;;;;;;21.83;12.20;;;15.30;99.90;;;;;;5051904;28;20021;-54
2022/09/08 05:48:13;;;;;;;21.65;11.20;;;15.40;99.90;;;;;;5051564;28;20047;-54
2022/09/08 05:50:43;;;;;;;19.00;10.60;;;15.40;99.90;;;;;;5051217;28;20029;-54
2022/09/08 05:53:10;;;;;;;19.48;12.00;;;15.40;99.90;;;;;;5051831;28;20032;-55
2022/09/08 05:55:36;;;;;;;20.85;11.52;;;15.50;99.90;;;;;;5051493;28;20029;-53
2022/09/08 05:58:02;;;;;;;27.58;12.32;;;15.50;99.90;;;;;;5051393;28;20451;-53
2022/09/08 06:00:28;;;;;;;23.05;11.75;;;15.50;99.90;;;;;;5050569;28;20503;-53
2022/09/08 06:02:54;;;;;;;24.08;12.18;;;15.60;99.90;;;;;;5051448;28;20029;-52
2022/09/08 06:05:22;;;;;;;18.45;11.40;;;15.60;99.90;;;;;;5051303;28;20033;-52
2022/09/08 06:07:48;;;;;;;25.15;12.13;;;15.70;99.90;;;;;;5051225;28;20033;-52
2022/09/08 06:10:15;;;;;;;23.38;11.25;;;15.80;99.90;;;;;;5051102;28;20017;-53
2022/09/08 06:12:41;;;;;;;19.60;10.60;;;15.90;99.90;;;;;;5050974;28;20506;-53
2022/09/08 06:15:07;;;;;;;21.00;11.27;;;16.00;99.90;;;;;;5049697;28;20071;-53
2022/09/08 06:17:33;;;;;;;19.55;10.52;;;16.10;99.90;;;;;;5050857;28;20037;-52
2022/09/08 06:19:59;;;;;;;17.70;10.60;;;16.10;99.90;;;;;;5051193;28;20036;-53
2022/09/08 06:22:25;;;;;;;16.20;9.88;;;16.20;99.90;;;;;;5051204;28;20036;-53
2022/09/08 06:24:51;;;;;;;21.17;11.30;;;16.30;99.90;;;;;;5051257;28;20025;-53
2022/09/08 06:27:54;;;;;;;21.20;10.55;;;16.40;99.90;;;;;;5051025;28;20025;-52
2022/09/08 06:30:20;;;;;;;19.35;10.55;;;16.50;99.90;;;;;;5050729;28;20033;-53
2022/09/08 06:32:59;;;;;;;24.38;11.70;;;16.50;99.90;;;;;;5050668;28;20493;-53
2022/09/08 06:35:48;;;;;;;26.15;12.07;;;16.60;99.90;;;;;;5050723;28;20031;-53
2022/09/08 06:38:30;;;;;;;21.98;10.77;;;16.70;99.90;;;;;;5047986;28;20063;-53
2022/09/08 06:41:10;;;;;;;22.77;11.60;;;16.80;99.90;;;;;;5047503;28;20087;-53
2022/09/08 06:43:46;;;;;;;18.77;11.18;;;16.90;99.90;;;;;;5048905;28;20108;-53
2022/09/08 06:46:26;;;;;;;18.45;11.10;;;17.00;99.90;;;;;;5050033;28;20073;-53
2022/09/08 06:48:53;;;;;;;21.02;10.32;;;17.10;99.90;;;;;;5048323;28;20035;-53
2022/09/08 06:51:24;;;;;;;17.10;10.38;;;17.20;99.90;;;;;;5048756;28;20102;-53
2022/09/08 06:53:57;;;;;;;18.00;11.32;;;17.40;99.90;;;;;;5049417;28;20053;-53
2022/09/08 06:56:38;;;;;;;18.52;10.27;;;17.50;99.90;;;;;;5048927;28;20040;-53
2022/09/08 06:59:19;;;;;;;17.25;10.27;;;17.60;99.90;;;;;;5051449;28;20056;-53
2022/09/08 07:01:53;;;;;;;17.20;10.40;;;17.80;99.90;;;;;;5059583;28;20033;-53
2022/09/08 07:04:33;;;;;;;19.92;10.82;;;17.90;99.90;;;;;;5058675;28;20459;-53
2022/09/08 07:07:09;;;;;;;19.35;11.02;;;18.10;99.90;;;;;;5058714;28;20079;-53
2022/09/08 07:09:50;;;;;;;19.58;10.48;;;18.20;99.90;;;;;;5058709;28;20024;-53
2022/09/08 07:12:25;;;;;;;16.77;10.18;;;18.30;99.90;;;;;;5059111;28;20032;-52
2022/09/08 07:15:21;;;;;;;20.63;9.95;;;18.40;99.90;;;;;;5066396;28;20086;-53
2022/09/08 07:17:53;;;;;;;16.45;10.88;;;18.50;99.90;;;;;;5069624;28;20043;-53
2022/09/08 07:20:19;;;;;;;17.00;9.70;;;18.60;99.90;;;;;;5067848;28;20434;-53
2022/09/08 07:22:57;;;;;;;15.88;9.40;;;18.60;99.90;;;;;;5068738;28;20488;-54
2022/09/08 07:25:35;;;;;;;;;;;18.90;99.90;;;;;;5069494;28;20103;-53
2022/09/08 07:28:15;;;;;;;16.45;9.90;;;19.00;99.90;;;;;;5068868;28;19912;-54
2022/09/08 07:30:41;;;;;;;18.63;10.18;;;19.10;99.90;;;;;;5068916;28;20043;-53
2022/09/08 07:33:36;;;;;;;20.00;9.77;;;19.20;99.90;;;;;;5058878;28;20099;-54
2022/09/08 07:36:21;;;;;;;16.63;10.15;;;19.50;99.90;;;;;;5048449;28;20040;-53
2022/09/08 07:38:52;;;;;;;15.95;9.55;;;19.70;99.90;;;;;;5048620;28;20063;-53
2022/09/08 07:41:25;;;;;;;15.15;9.73;;;19.70;99.90;;;;;;5048520;28;20476;-53
2022/09/08 07:43:57;;;;;;;15.80;10.05;;;19.70;99.90;;;;;;5048066;28;20020;-53
2022/09/08 07:46:49;;;;;;;16.48;9.55;;;19.80;99.90;;;;;;5062982;22;20411;-87
2022/09/08 07:49:52;;;;;;;15.85;9.13;;;20.00;99.90;;;;;;5029645;28;20159;-86
2022/09/08 07:52:45;;;;;;;19.08;10.38;;;20.20;99.90;;;;;;5050477;28;20071;-85
2022/09/08 07:55:32;;;;;;;15.55;9.13;;;20.40;99.90;;;;;;5044994;28;20021;-85
2022/09/08 07:58:21;;;;;;;16.77;10.20;;;20.60;99.90;;;;;;5054916;28;20068;-86
2022/09/08 08:01:19;;;;;;;16.67;9.68;;;20.70;99.90;;;;;;5037468;28;20037;-85
2022/09/08 08:04:30;;;;;;;16.58;10.57;;;20.70;99.90;;;;;;5046720;28;20028;-87
2022/09/08 08:06:59;;;;;;;14.20;9.75;;;20.90;99.90;;;;;;5038559;28;20031;-86
2022/09/08 08:09:52;;;;;;;14.63;9.40;;;21.00;99.90;;;;;;5035574;28;20964;-87
2022/09/08 08:12:35;;;;;;;15.43;10.00;;;21.10;99.90;;;;;;5036101;28;20416;-88
2022/09/08 08:15:12;;;;;;;19.73;10.65;;;21.30;99.90;;;;;;5036201;28;20029;-89
2022/09/08 08:17:52;;;;;;;21.05;9.27;;;21.40;99.90;;;;;;5037804;28;20124;-89
2022/09/08 08:20:37;;;;;;;12.57;9.32;;;21.60;99.90;;;;;;5036018;28;20021;-89
2022/09/08 08:23:28;;;;;;;15.13;8.88;;;21.80;99.90;;;;;;5034041;28;20559;-88
2022/09/08 08:26:07;;;;;;;13.02;9.23;;;22.00;99.90;;;;;;5034633;28;20040;-88
2022/09/08 08:28:51;;;;;;;13.80;9.80;;;22.20;99.90;;;;;;5034863;28;20029;-89
2022/09/08 08:31:31;;;;;;;11.23;8.27;;;22.40;99.90;;;;;;5036600;28;20021;-89
2022/09/08 08:34:10;;;;;;;14.50;9.00;;;22.50;99.90;;;;;;5032049;28;20037;-89
2022/09/08 08:36:41;;;;;;;17.73;9.20;;;22.80;99.90;;;;;;5031759;28;20032;-90
2022/09/08 08:39:16;;;;;;;14.18;9.30;;;22.90;99.90;;;;;;5031835;28;20032;-88
2022/09/08 08:41:45;;;;;;;13.15;9.30;;;23.10;99.90;;;;;;5050906;28;20044;-90
2022/09/08 08:44:26;;;;;;;13.65;8.55;;;23.50;99.90;;;;;;5031286;28;20032;-89
2022/09/08 08:47:13;;;;;;;12.60;7.97;;;23.50;99.90;;;;;;5032545;28;20060;-89
2022/09/08 08:50:16;;;;;;;9.68;8.10;;;23.60;99.90;;;;;;5032647;28;20127;-89
2022/09/08 08:52:50;;;;;;;13.25;9.32;;;23.70;99.90;;;;;;5033767;28;20039;-90
2022/09/08 08:55:43;;;;;;;11.48;8.30;;;24.10;99.90;;;;;;5052334;28;20013;-89
2022/09/08 08:58:44;;;;;;;11.07;7.93;;;24.20;99.90;;;;;;5041462;28;20388;-89
2022/09/08 09:01:37;;;;;;;11.10;8.73;;;25.10;99.90;;;;;;5034361;28;20122;-89
2022/09/08 09:04:38;;;;;;;18.92;9.40;;;25.20;99.90;;;;;;5033482;28;20554;-89
2022/09/08 09:07:22;;;;;;;15.00;8.35;;;26.70;99.80;;;;;;5033909;28;20033;-89
2022/09/08 09:10:10;;;;;;;20.67;9.63;;;27.20;98.60;;;;;;5033218;28;20391;-91
2022/09/08 09:13:09;;;;;;;12.80;8.77;;;26.70;98.70;;;;;;5033947;28;20082;-89
2022/09/08 09:15:48;;;;;;;13.80;8.50;;;26.20;99.90;;;;;;5033766;28;20062;-90
2022/09/08 09:18:35;;;;;;;13.60;7.72;;;26.70;99.90;;;;;;5033627;28;20036;-89
2022/09/08 09:21:33;;;;;;;13.45;7.57;;;26.90;99.10;;;;;;5033911;28;20036;-89
2022/09/08 09:24:14;;;;;;;13.32;9.35;;;27.50;96.70;;;;;;4996584;28;20475;-89
2022/09/08 09:26:48;;;;;;;17.48;8.43;;;27.80;94.30;;;;;;5033830;28;20025;-89
2022/09/08 09:29:20;;;;;;;12.20;8.20;;;28.00;91.90;;;;;;5034152;28;20124;-89
2022/09/08 09:32:10;;;;;;;10.93;8.50;;;27.40;93.90;;;;;;5033271;28;20024;-90
2022/09/08 09:34:54;;;;;;;16.30;8.93;;;27.50;93.80;;;;;;5033610;28;20174;-91
2022/09/08 09:37:24;;;;;;;13.05;8.30;;;27.30;94.10;;;;;;5037008;28;20033;-90
2022/09/08 09:40:02;;;;;;;13.77;8.45;;;27.30;93.60;;;;;;5055118;28;20036;-90
2022/09/08 09:42:56;;;;;;;13.15;8.13;;;27.00;95.50;;;;;;5037076;28;20086;-89
2022/09/08 09:45:28;;;;;;;10.57;8.38;;;27.20;94.90;;;;;;5037690;28;20111;-91
2022/09/08 09:48:06;;;;;;;11.98;8.55;;;27.50;94.00;;;;;;5038725;28;20017;-90
2022/09/08 09:50:44;;;;;;;;;;;27.90;92.90;;;;;;5039212;28;20116;-90
2022/09/08 09:53:45;;;;;;;16.73;8.63;;;28.50;91.90;;;;;;5037525;28;19905;-89
2022/09/08 09:56:32;;;;;;;14.30;8.55;;;28.40;92.40;;;;;;4957668;28;20072;-90
2022/09/08 09:58:58;;;;;;;15.20;7.93;;;28.70;90.20;;;;;;5031552;28;20481;-91
2022/09/08 10:01:55;;;;;;;13.95;7.65;;;28.20;92.50;;;;;;5036466;28;20082;-89
2022/09/08 10:04:29;;;;;;;11.30;8.38;;;28.20;90.70;;;;;;5029004;28;20037;-91
2022/09/08 10:07:13;;;;;;;9.93;7.70;;;28.60;90.00;;;;;;5053671;28;20035;-88
2022/09/08 10:10:07;;;;;;;10.73;7.60;;;29.20;90.40;;;;;;5052916;28;20079;-90
2022/09/08 10:12:55;;;;;;;11.50;8.00;;;29.40;90.00;;;;;;5036224;28;20028;-87
2022/09/08 10:15:53;;;;;;;11.77;7.78;;;30.00;88.60;;;;;;5038297;28;20478;-95
2022/09/08 10:18:49;;;;;;;13.18;8.45;;;30.10;83.00;;;;;;5057483;28;20033;-90
2022/09/08 10:21:23;;;;;;;14.93;7.97;;;29.70;88.00;;;;;;5069866;28;20024;-92
2022/09/08 10:24:17;;;;;;;14.40;8.00;;;29.80;84.00;;;;;;5075490;28;20087;-92
2022/09/08 10:26:58;;;;;;;11.90;7.65;;;30.30;88.30;;;;;;5083471;28;20091;-91
2022/09/08 10:30:00;;;;;;;14.98;7.32;;;30.50;82.10;;;;;;5068349;28;20028;-91
2022/09/08 10:32:47;;;;;;;14.45;7.72;;;29.40;83.90;;;;;;5053440;28;20424;-91
2022/09/08 10:35:19;;;;;;;10.82;7.25;;;28.90;84.70;;;;;;5036979;28;20041;-89
2022/09/08 10:38:17;;;;;;;11.25;7.68;;;28.80;87.70;;;;;;5041926;28;20033;-89
2022/09/08 10:40:58;;;;;;;13.30;7.60;;;28.90;87.20;;;;;;5051781;28;20028;-93
2022/09/08 10:43:36;;;;;;;9.82;6.57;;;29.40;85.70;;;;;;5039684;28;20037;-91
2022/09/08 10:46:32;;;;;;;9.25;7.38;;;29.10;86.10;;;;;;5039191;28;20484;-88
2022/09/08 10:49:26;;;;;;;17.75;11.35;;;28.80;86.40;;;;;;5057130;28;20021;-92
2022/09/08 10:52:16;;;;;;;10.77;6.65;;;29.00;86.20;;;;;;5048819;28;20035;-90
2022/09/08 10:55:03;;;;;;;11.15;8.20;;;29.20;88.00;;;;;;5020974;28;20167;-92
2022/09/08 10:57:50;;;;;;;12.20;7.17;;;28.90;85.70;;;;;;5021543;28;20033;-92
2022/09/08 11:00:20;;;;;;;10.75;7.07;;;28.30;86.70;;;;;;5039581;28;20039;-91
2022/09/08 11:03:27;;;;;;;14.55;8.02;;;28.50;86.00;;;;;;5044880;28;20071;-90
2022/09/08 11:06:05;;;;;;;8.60;7.22;;;27.90;87.90;;;;;;5040766;28;20191;-93
2022/09/08 11:08:59;;;;;;;8.73;6.55;;;27.60;87.60;;;;;;5040862;28;20043;-90
2022/09/08 11:12:01;;;;;;;10.98;7.03;;;27.70;85.50;;;;;;5041746;28;20507;-89
2022/09/08 11:14:45;;;;;;;11.02;7.03;;;27.60;87.70;;;;;;5038344;28;20095;-92
2022/09/08 11:17:47;;;;;;;11.57;7.25;;;27.40;87.90;;;;;;5044814;28;20036;-92
2022/09/08 11:20:40;;;;;;;12.48;6.63;;;27.20;90.10;;;;;;5055310;28;20096;-89
2022/09/08 11:23:35;;;;;;;8.60;6.80;;;27.20;89.70;;;;;;5046178;28;20040;-90
2022/09/08 11:26:30;;;;;;;9.95;7.28;;;27.20;90.50;;;;;;5040956;28;20032;-89
2022/09/08 11:29:12;;;;;;;13.82;7.57;;;27.60;90.00;;;;;;5052641;28;20559;-89
2022/09/08 11:31:47;;;;;;;11.63;7.20;;;27.90;90.40;;;;;;5072606;28;20031;-90
2022/09/08 11:34:34;;;;;;;11.32;7.70;;;28.20;85.60;;;;;;5054476;28;20039;-89
2022/09/08 11:37:05;;;;;;;10.82;7.03;;;28.30;89.10;;;;;;5054925;28;20522;-89
2022/09/08 11:39:36;;;;;;;10.85;7.55;;;28.60;87.60;;;;;;5055507;28;20506;-89
2022/09/08 11:42:27;;;;;;;14.18;8.02;;;28.50;84.80;;;;;;5055248;28;20025;-89
2022/09/08 11:45:11;;;;;;;9.55;6.97;;;28.10;86.40;;;;;;5054417;28;20102;-90
2022/09/08 11:47:46;;;;;;;9.50;7.45;;;27.90;89.30;;;;;;5072735;28;20052;-89
2022/09/08 11:50:20;;;;;;;11.20;7.53;;;27.80;89.50;;;;;;5065946;28;20090;-89
2022/09/08 11:52:49;;;;;;;11.10;8.23;;;27.50;86.60;;;;;;5061953;28;20029;-90
2022/09/08 11:55:51;;;;;;;10.20;7.55;;;27.40;90.00;;;;;;5055646;28;20046;-88
2022/09/08 11:58:36;;;;;;;11.88;7.65;;;27.30;90.20;;;;;;5054589;28;20115;-90
2022/09/08 12:01:02;;;;;;;10.30;7.05;;;27.10;90.70;;;;;;5056901;28;20590;-89
2022/09/08 12:03:39;;;;;;;14.20;7.80;;;27.00;90.20;;;;;;5056038;28;20035;-89
2022/09/08 12:06:27;;;;;;;19.52;7.20;;;27.00;90.60;;;;;;5055677;28;20020;-90
2022/09/08 12:09:05;;;;;;;12.25;7.50;;;27.10;89.40;;;;;;5054766;28;20028;-89
2022/09/08 12:12:05;;;;;;;11.32;8.35;;;27.00;92.00;;;;;;5054652;28;20028;-89
2022/09/08 12:14:37;;;;;;;10.32;8.13;;;27.00;90.30;;;;;;5055842;28;20031;-88
2022/09/08 12:17:18;;;;;;;13.40;8.38;;;27.00;90.40;;;;;;5054835;28;20136;-88
2022/09/08 12:20:22;;;;;;;10.68;7.97;;;27.20;89.40;;;;;;5038649;28;20185;-89
2022/09/08 12:23:07;;;;;;;14.52;8.30;;;27.60;91.70;;;;;;5056079;28;20013;-90
2022/09/08 12:25:50;;;;;;;10.18;7.88;;;28.20;90.20;;;;;;5057189;28;20078;-90
2022/09/08 12:28:49;;;;;;;9.95;7.80;;;28.80;88.00;;;;;;5057317;28;20078;-89
2022/09/08 12:31:33;;;;;;;14.90;8.93;;;29.40;87.30;;;;;;5057070;28;20024;-89
2022/09/08 12:34:26;;;;;;;11.93;8.18;;;29.20;83.70;;;;;;5057051;28;20052;-89
2022/09/08 12:37:20;;;;;;;11.30;8.68;;;29.20;80.90;;;;;;5055385;28;20037;-89
2022/09/08 12:40:17;;;;;;;12.90;8.00;;;29.20;84.60;;;;;;5048885;28;20059;-90
2022/09/08 12:43:08;;;;;;;12.02;8.15;;;29.70;84.10;;;;;;5055058;28;20174;-89
2022/09/08 12:46:04;;;;;;;16.83;8.45;;;29.70;83.20;;;;;;5054754;28;20044;-89
2022/09/08 12:48:43;;;;;;;18.75;9.07;;;29.90;80.90;;;;;;5056434;28;20021;-89
2022/09/08 12:51:32;;;;;;;22.25;8.45;;;30.00;80.60;;;;;;5055136;28;20071;-88
2022/09/08 12:54:18;;;;;;;12.32;9.00;;;30.00;81.10;;;;;;5055359;28;20021;-90
2022/09/08 12:57:16;;;;;;;18.20;9.27;;;30.20;82.20;;;;;;5054662;28;20098;-88
2022/09/08 12:59:50;;;;;;;15.48;8.45;;;30.40;80.20;;;;;;5055833;28;20054;-88
2022/09/08 13:02:35;;;;;;;13.35;8.82;;;30.10;78.90;;;;;;5057777;28;20020;-88
2022/09/08 13:05:17;;;;;;;12.43;8.52;;;30.40;79.40;;;;;;5056090;28;20051;-88
2022/09/08 13:08:02;;;;;;;13.20;7.90;;;30.40;78.00;;;;;;5055057;28;20460;-89
2022/09/08 13:10:27;;;;;;;13.65;8.80;;;30.40;78.50;;;;;;5057391;28;20741;-89
2022/09/08 13:13:34;;;;;;;19.65;7.88;;;30.50;78.80;;;;;;5058839;28;20024;-89
2022/09/08 13:16:24;;;;;;;11.43;8.48;;;30.60;79.50;;;;;;5064688;28;20016;-88
2022/09/08 13:19:02;;;;;;;15.65;9.35;;;30.20;79.40;;;;;;5068309;28;20039;-88
2022/09/08 13:22:15;;;;;;;13.07;8.60;;;29.70;77.40;;;;;;5058769;28;20037;-89
2022/09/08 13:24:54;;;;;;;12.15;8.23;;;29.00;80.70;;;;;;5058470;28;20059;-89